AKDT,Max TemperatureF,Mean TemperatureF,Min TemperatureF,Max Dew PointF,MeanDew PointF,Min DewpointF,Max Humidity, Mean Humidity, Min Humidity, Max Sea Level PressureIn, Mean Sea Level PressureIn, Min Sea Level PressureIn, Max VisibilityMiles, Mean VisibilityMiles, Min VisibilityMiles, Max Wind SpeedMPH, Mean Wind SpeedMPH, Max Gust SpeedMPH,PrecipitationIn, CloudCover, Events, WindDirDegrees
2013-8-1,78,62,46,54,48,37,100,61,24,30.11,30.01,29.89,10,10,3,9,2,16,0.00,,,176
2013-8-2,75,66,57,54,48,43,82,54,31,29.95,29.89,29.79,10,10,5,9,4,20,0.00,,,168
2013-8-3,71,64,57,55,44,37,82,48,33,29.81,29.75,29.72,10,10,9,16,10,29,0.00,,,180
2013-8-4,66,60,55,46,45,41,72,60,42,29.94,29.88,29.81,10,10,5,9,6,18,0.00,,,159
2013-8-5,68,57,46,48,45,39,87,63,37,29.96,29.94,29.91,10,10,7,12,3,20,0.00,,,159
2013-8-6,71,60,48,46,43,39,82,52,31,29.98,29.92,29.86,10,10,9,15,4,24,0.00,,,193
2013-8-7,73,58,44,45,40,34,87,48,23,29.88,29.79,29.70,10,10,7,12,3,24,0.00,,,194
2013-8-8,71,62,53,48,42,39,67,49,33,29.74,29.71,29.67,10,10,5,13,4,22,0.00,,,173
2013-8-9,62,58,53,46,44,37,77,61,48,29.75,29.73,29.70,10,10,8,15,7,28,0.00,,,188
2013-8-10,60,56,51,52,46,43,94,73,55,30.02,29.86,29.76,10,10,10,9,5,16,0.00,,,178
2013-8-11,64,55,46,57,49,45,100,80,55,30.06,30.02,29.98,10,10,3,7,1,,0.00,,,229
2013-8-12,66,60,53,57,54,52,100,89,68,30.08,30.05,30.00,10,7,2,14,4,21,0.00,,,7
2013-8-13,78,62,46,55,51,46,100,73,34,30.03,29.95,29.86,10,10,9,8,1,,0.00,,,156
2013-8-14,68,59,50,52,49,46,94,71,49,29.95,29.91,29.86,10,10,10,15,3,24,0.00,,,15
2013-8-15,64,57,48,54,50,45,100,79,63,29.88,29.80,29.73,10,9,5,8,1,,0.00,4,,10
2013-8-16,68,52,37,46,42,36,100,68,33,29.75,29.69,29.61,10,10,10,10,1,,0.00,1,,165
2013-8-17,69,58,48,55,49,43,100,74,38,29.64,29.59,29.54,10,10,8,17,2,23,0.00,6,,49
2013-8-18,64,58,51,54,50,46,100,78,52,29.60,29.56,29.53,10,10,5,12,5,17,0.00,7,,1
2013-8-19,57,54,51,52,51,48,100,93,82,29.67,29.65,29.60,10,9,3,6,0,,0.00,8,,171
2013-8-20,53,50,46,52,48,46,100,96,82,29.80,29.72,29.67,10,10,3,7,1,,0.00,8,,323
2013-8-21,53,46,39,48,44,37,100,89,72,29.82,29.77,29.72,10,10,10,6,1,,0.00,8,,170
2013-8-22,55,48,42,52,46,43,100,90,72,29.73,29.68,29.61,10,10,5,8,2,,0.00,7,,159
2013-8-23,51,48,46,52,46,43,100,94,76,29.67,29.60,29.57,10,8,3,10,2,17,0.00,8,,280
2013-8-24,55,47,39,46,41,32,100,79,41,29.88,29.80,29.68,10,10,6,13,5,20,0.00,4,,352
2013-8-25,62,44,26,37,31,21,100,66,20,29.88,29.78,29.68,10,10,10,9,1,,0.00,0,,5
2013-8-26,64,46,28,41,34,27,100,66,32,29.79,29.75,29.71,10,10,10,8,2,,0.00,0,,352
2013-8-27,64,47,30,46,36,28,100,68,34,29.83,29.75,29.66,10,10,10,8,1,,0.00,3,,166
2013-8-28,51,46,42,48,45,43,100,92,76,29.73,29.69,29.64,10,10,8,6,2,,0.00,7,,280
2013-8-29,51,46,42,50,46,43,100,99,93,29.86,29.73,29.65,10,10,10,10,2,16,0.00,8,,11
2013-8-30,48,46,44,48,46,43,100,97,87,29.97,29.93,29.86,10,10,7,8,2,,0.00,8,,6
2013-8-31,44,42,39,45,40,37,100,96,93,29.97,29.91,29.85,10,10,10,9,4,,0.00,8,,6